createdAt,value
2022-11-05T12:10:12.796Z,73.70
2022-11-05T12:13:20.914Z,73.00
2022-11-05T12:15:56.759Z,73.24
2022-11-05T12:18:48.457Z,73.20
2022-11-05T12:21:51.522Z,72.51
2022-11-05T12:24:39.829Z,72.70
2022-11-05T12:27:47.109Z,72.41
2022-11-05T12:30:19.962Z,71.58
2022-11-05T12:32:50.802Z,72.28
2022-11-05T12:35:48.233Z,72.29
2022-11-05T12:38:32.531Z,72.55
2022-11-05T12:41:42.066Z,71.92
2022-11-05T12:44:19.967Z,71.21
2022-11-05T12:47:16.871Z,70.96
2022-11-05T12:49:52.356Z,71.15
2022-11-05T12:53:09.806Z,71.25
2022-11-05T12:55:48.082Z,70.80
2022-11-05T12:58:31.613Z,71.20
2022-11-05T13:01:03.816Z,71.58
2022-11-05T13:03:52.693Z,70.93
2022-11-05T13:06:25.134Z,71.12
2022-11-05T13:09:14.829Z,70.66
2022-11-05T13:11:49.702Z,71.02
2022-11-05T13:14:21.654Z,70.01
2022-11-05T13:17:03.948Z,69.01
2022-11-05T13:19:38.012Z,69.67
2022-11-05T13:22:21.147Z,69.83
2022-11-05T13:24:57.769Z,71.23
2022-11-05T13:27:42.815Z,71.58
2022-11-05T13:30:16.919Z,72.05
2022-11-05T13:32:49.739Z,71.60
2022-11-05T13:35:25.934Z,72.40
2022-11-05T13:38:13.831Z,72.24
2022-11-05T13:40:55.978Z,72.42
2022-11-05T13:43:29.058Z,72.70
2022-11-05T13:46:02.950Z,73.19
2022-11-05T13:48:39.775Z,72.83
2022-11-05T13:51:12.137Z,73.26
2022-11-05T13:53:47.591Z,73.17
2022-11-05T13:56:29.245Z,73.52
2022-11-05T13:59:10.794Z,74.04
2022-11-05T14:01:58.594Z,73.32
2022-11-05T14:04:25.852Z,73.89
2022-11-05T14:06:52.905Z,73.44
2022-11-05T14:09:26.011Z,73.02
2022-11-05T14:11:57.088Z,73.05
2022-11-05T14:14:30.450Z,72.66
2022-11-05T14:17:09.882Z,72.78
2022-11-05T14:19:51.820Z,72.74
2022-11-05T14:22:33.914Z,73.15
2022-11-05T14:25:02.527Z,72.95
2022-11-05T14:27:29.053Z,73.54
2022-11-05T14:29:56.083Z,73.70
2022-11-05T14:32:25.609Z,73.79
2022-11-05T14:35:34.410Z,73.51
2022-11-05T14:38:01.233Z,74.07
2022-11-05T14:40:37.491Z,74.49
2022-11-05T14:43:05.988Z,74.30
2022-11-05T14:45:39.376Z,74.17
2022-11-05T14:48:25.327Z,74.79
2022-11-05T14:50:52.235Z,74.73
2022-11-05T14:53:32.214Z,74.95
2022-11-05T14:56:04.479Z,74.85
2022-11-05T14:58:39.978Z,74.52
2022-11-05T15:01:10.016Z,73.73
2022-11-05T15:03:45.449Z,73.45
2022-11-05T15:06:33.715Z,73.15
2022-11-05T15:09:03.539Z,73.71
2022-11-05T15:11:35.876Z,72.64
2022-11-05T15:15:00.813Z,71.98
2022-11-05T15:17:58.991Z,72.19
2022-11-05T15:20:49.790Z,71.96
2022-11-05T15:23:21.662Z,71.92
2022-11-05T15:26:15.215Z,72.68
2022-11-05T15:28:48.793Z,72.60
2022-11-05T15:31:15.402Z,72.57
2022-11-05T15:33:47.675Z,73.51
2022-11-05T15:36:21.108Z,73.89
2022-11-05T15:39:08.104Z,74.87
2022-11-05T15:41:35.770Z,74.82
2022-11-05T15:44:02.835Z,75.27
2022-11-05T15:46:29.973Z,75.50
2022-11-05T15:49:07.102Z,76.07
2022-11-05T15:51:35.615Z,76.30
2022-11-05T15:54:29.053Z,76.40
2022-11-05T15:57:00.056Z,76.15
2022-11-05T15:59:29.291Z,76.87
2022-11-05T16:02:28.189Z,76.12
2022-11-05T16:04:55.344Z,76.80
2022-11-05T16:07:22.235Z,76.93
2022-11-05T16:09:58.141Z,76.89
2022-11-05T16:12:31.429Z,77.13
2022-11-05T16:15:10.281Z,76.64
2022-11-05T16:17:41.990Z,76.76
2022-11-05T16:20:34.090Z,76.26
2022-11-05T16:23:22.475Z,77.44
2022-11-05T16:25:54.759Z,76.85
2022-11-05T16:28:24.403Z,78.23
2022-11-05T16:30:54.877Z,77.85
2022-11-05T16:33:22.101Z,78.83
2022-11-05T16:35:51.573Z,78.32
2022-11-05T16:38:20.878Z,78.91
2022-11-05T16:40:47.638Z,78.14
2022-11-05T16:43:23.502Z,78.02
2022-11-05T16:45:54.190Z,78.93
2022-11-05T16:48:20.789Z,78.11
2022-11-05T16:50:47.467Z,78.48
2022-11-05T16:53:14.211Z,78.96
2022-11-05T16:55:42.617Z,77.89
2022-11-05T16:58:20.704Z,77.64
2022-11-05T17:00:49.239Z,78.44
2022-11-05T17:03:15.871Z,77.96
2022-11-05T17:05:42.954Z,78.87
2022-11-05T17:08:12.575Z,78.36
2022-11-05T17:10:41.974Z,78.84
2022-11-05T17:13:14.398Z,79.08
2022-11-05T17:15:43.836Z,79.20
2022-11-05T17:18:15.441Z,79.97
2022-11-05T17:20:57.824Z,78.92
2022-11-05T17:23:26.849Z,78.56
2022-11-05T17:25:57.284Z,78.40
2022-11-05T17:28:23.941Z,78.63
2022-11-05T17:30:56.323Z,78.19
2022-11-05T17:33:25.074Z,78.94
2022-11-05T17:35:52.545Z,78.53
2022-11-05T17:38:19.849Z,78.93
2022-11-05T17:40:46.549Z,79.41
2022-11-05T17:43:13.736Z,78.73
2022-11-05T17:45:47.940Z,78.50
2022-11-05T17:48:15.546Z,78.21
2022-11-05T17:50:44.326Z,78.50
2022-11-05T17:53:17.699Z,78.83
2022-11-05T17:55:45.882Z,78.69
2022-11-05T17:58:12.934Z,79.19
2022-11-05T18:00:40.064Z,79.41
2022-11-05T18:03:06.941Z,79.12
2022-11-05T18:05:34.738Z,79.49
2022-11-05T18:08:01.754Z,79.14
2022-11-05T18:10:30.103Z,79.21
2022-11-05T18:12:56.743Z,78.52
2022-11-05T18:15:24.228Z,79.28
2022-11-05T18:17:50.846Z,79.60
2022-11-05T18:20:19.438Z,78.19
2022-11-05T18:22:49.371Z,78.40
2022-11-05T18:25:16.810Z,78.25
2022-11-05T18:27:44.047Z,77.45
2022-11-05T18:30:15.627Z,77.29
2022-11-05T18:32:44.341Z,76.93
2022-11-05T18:35:11.911Z,76.85
2022-11-05T18:37:39.728Z,76.66
2022-11-05T18:40:07.527Z,76.17
2022-11-05T18:42:34.134Z,76.43
2022-11-05T18:45:00.893Z,77.55
2022-11-05T18:47:27.624Z,76.71
2022-11-05T18:49:54.252Z,77.36
2022-11-05T18:52:21.646Z,77.38
2022-11-05T18:54:48.198Z,78.74
2022-11-05T18:57:14.760Z,77.52
2022-11-05T18:59:46.766Z,77.80
2022-11-05T19:02:14.219Z,77.63
2022-11-05T19:04:55.098Z,76.86
2022-11-05T19:07:29.309Z,77.79
2022-11-05T19:09:56.846Z,77.11
2022-11-05T19:12:23.449Z,76.73
2022-11-05T19:14:50.160Z,76.53
2022-11-05T19:17:16.753Z,75.90
2022-11-05T19:19:43.325Z,76.17
2022-11-05T19:22:11.399Z,75.68
2022-11-05T19:24:37.985Z,75.46
2022-11-05T19:27:04.579Z,76.15
2022-11-05T19:29:31.194Z,76.06
2022-11-05T19:31:57.766Z,76.26
2022-11-05T19:34:24.389Z,76.00
2022-11-05T19:36:51.019Z,75.89
2022-11-05T19:39:17.587Z,76.34
2022-11-05T19:41:44.217Z,77.07
2022-11-05T19:44:11.429Z,76.96
2022-11-05T19:46:38.548Z,76.80
2022-11-05T19:49:05.236Z,77.16
2022-11-05T19:51:34.424Z,77.40
2022-11-05T19:54:02.841Z,77.64
2022-11-05T19:56:31.784Z,77.80
2022-11-05T19:59:00.439Z,76.92
2022-11-05T20:01:28.768Z,77.40
2022-11-05T20:03:57.178Z,78.10
2022-11-05T20:06:28.834Z,76.98
2022-11-05T20:11:50.038Z,77.71
2022-11-05T20:14:17.087Z,77.90
2022-11-05T20:16:45.036Z,77.40
2022-11-05T20:19:15.954Z,77.05
2022-11-05T20:21:43.241Z,77.12
2022-11-05T20:24:12.595Z,77.30
2022-11-05T20:26:39.788Z,77.61
2022-11-05T20:29:13.071Z,77.01
2022-11-05T20:31:39.692Z,76.58
2022-11-05T20:34:07.461Z,77.09
2022-11-05T20:36:34.035Z,76.91
2022-11-05T20:39:02.840Z,76.73
2022-11-05T20:41:30.824Z,76.95
2022-11-05T20:43:57.766Z,76.13
2022-11-05T20:46:25.250Z,76.01
2022-11-05T20:48:52.527Z,75.26
2022-11-05T20:51:25.367Z,75.43
2022-11-05T20:54:00.098Z,75.67
2022-11-05T20:56:32.614Z,76.18
2022-11-05T20:59:01.197Z,75.85
2022-11-05T21:01:30.767Z,76.49
2022-11-05T21:03:57.764Z,76.86
2022-11-05T21:06:25.232Z,75.96
2022-11-05T21:08:53.888Z,76.06
2022-11-05T21:11:21.869Z,76.25
2022-11-05T21:13:48.898Z,76.34
2022-11-05T21:16:18.694Z,76.47
2022-11-05T21:18:46.731Z,76.63
2022-11-05T21:21:18.353Z,76.57
2022-11-05T21:23:45.117Z,76.61
2022-11-05T21:26:13.353Z,76.27
2022-11-05T21:28:41.678Z,76.22
2022-11-05T21:31:09.034Z,75.51
2022-11-05T21:33:35.809Z,75.50
2022-11-05T21:36:12.412Z,74.92
2022-11-05T21:38:40.054Z,75.53
2022-11-05T21:41:08.261Z,74.39
2022-11-05T21:43:35.778Z,74.35
2022-11-05T21:46:04.138Z,74.87
2022-11-05T21:48:30.880Z,74.14
2022-11-05T21:54:36.663Z,74.21
2022-11-05T21:57:21.973Z,74.76
2022-11-05T21:59:49.618Z,73.87
2022-11-05T22:02:28.528Z,74.47
2022-11-05T22:04:58.303Z,75.11
2022-11-05T22:07:28.043Z,75.20
2022-11-05T22:09:54.947Z,75.37
2022-11-05T22:12:22.267Z,75.71
2022-11-05T22:14:48.907Z,75.44
2022-11-05T22:17:15.894Z,75.47
2022-11-05T22:19:42.736Z,75.01
2022-11-05T22:22:09.831Z,75.64
2022-11-05T22:24:37.299Z,75.12
2022-11-05T22:27:07.413Z,74.89
2022-11-05T22:29:34.280Z,74.76
2022-11-05T22:32:00.919Z,74.95
2022-11-05T22:34:27.688Z,74.80
2022-11-05T22:36:55.223Z,74.24
2022-11-05T22:39:22.375Z,73.71
2022-11-05T22:41:50.769Z,73.24
2022-11-05T22:44:17.363Z,73.73
2022-11-05T22:46:44.429Z,72.90
2022-11-05T22:49:11.144Z,72.30
2022-11-05T22:51:39.533Z,72.94
2022-11-05T22:54:07.601Z,73.37
2022-11-05T22:56:37.738Z,72.95
2022-11-05T22:59:05.480Z,73.12
2022-11-05T23:01:32.169Z,73.05
2022-11-05T23:03:59.614Z,73.06
2022-11-05T23:06:48.546Z,73.16
2022-11-05T23:09:40.712Z,73.56
2022-11-05T23:12:19.523Z,73.38
2022-11-05T23:14:46.161Z,73.46
2022-11-05T23:17:31.273Z,73.34
2022-11-05T23:20:16.771Z,73.50
2022-11-05T23:23:02.243Z,73.12
2022-11-05T23:25:28.887Z,72.41
2022-11-05T23:27:55.557Z,72.51
2022-11-05T23:30:25.011Z,72.63
2022-11-05T23:32:53.227Z,73.50
2022-11-05T23:35:40.089Z,72.92
2022-11-05T23:38:26.092Z,73.32
2022-11-05T23:41:11.130Z,73.32
2022-11-05T23:43:57.716Z,73.12
2022-11-05T23:46:42.548Z,73.57
2022-11-05T23:49:09.417Z,72.72
2022-11-05T23:51:35.998Z,72.49
2022-11-05T23:54:02.606Z,72.83
2022-11-05T23:56:31.492Z,73.36
2022-11-05T23:58:58.193Z,73.12
